createdAt,value
2023-04-28T03:52:10.151Z,7.60
2023-04-28T03:55:13.571Z,9.90
2023-04-28T03:58:16.231Z,12.02
2023-04-28T04:01:19.146Z,12.23
2023-04-28T04:04:24.794Z,14.35
2023-04-28T04:07:27.955Z,12.63
2023-04-28T04:10:31.253Z,12.55
2023-04-28T04:13:34.241Z,10.18
2023-04-28T04:16:38.848Z,12.60
2023-04-28T04:19:41.594Z,12.23
2023-04-28T04:22:46.220Z,13.70
2023-04-28T04:25:49.992Z,14.70
2023-04-28T04:28:53.762Z,12.00
2023-04-28T04:31:56.598Z,14.98
2023-04-28T04:34:59.664Z,12.70
2023-04-28T04:38:03.453Z,8.52
2023-04-28T04:41:07.060Z,8.80
2023-04-28T04:44:09.805Z,10.18
2023-04-28T04:47:14.862Z,9.68
2023-04-28T04:50:17.724Z,9.75
2023-04-28T04:53:20.862Z,6.72
2023-04-28T04:56:23.631Z,11.82
2023-04-28T04:59:27.110Z,9.27
2023-04-28T05:02:30.643Z,8.77
2023-04-28T05:05:34.792Z,12.63
2023-04-28T05:08:37.987Z,11.65
2023-04-28T05:11:41.226Z,7.75
2023-04-28T05:14:43.884Z,9.77
2023-04-28T05:17:47.422Z,8.05
2023-04-28T05:20:51.035Z,9.10
2023-04-28T05:23:54.457Z,12.05
2023-04-28T05:26:58.844Z,8.38
2023-04-28T05:30:02.186Z,10.45
2023-04-28T05:33:05.817Z,11.32
2023-04-28T05:36:09.606Z,10.43
2023-04-28T05:39:14.090Z,12.37
2023-04-28T05:42:17.759Z,11.57
2023-04-28T05:45:20.763Z,11.20
2023-04-28T05:48:23.871Z,10.27
2023-04-28T05:51:27.276Z,11.20
2023-04-28T05:54:30.587Z,12.07
2023-04-28T05:57:41.720Z,14.57
2023-04-28T06:00:54.910Z,14.65
2023-04-28T06:04:01.041Z,11.07
2023-04-28T06:07:04.244Z,10.88
2023-04-28T06:10:09.544Z,11.10
2023-04-28T06:13:13.972Z,11.57
2023-04-28T06:16:18.887Z,11.73
2023-04-28T06:19:22.650Z,13.10
2023-04-28T06:22:26.573Z,11.38
2023-04-28T06:25:29.861Z,11.18
2023-04-28T06:28:32.804Z,10.45
2023-04-28T06:31:35.552Z,13.77
2023-04-28T06:34:38.485Z,10.40
2023-04-28T06:37:42.707Z,12.05
2023-04-28T06:40:46.122Z,10.57
2023-04-28T06:43:49.231Z,12.52
2023-04-28T06:46:55.082Z,14.00
2023-04-28T06:49:57.785Z,11.20
2023-04-28T06:53:01.321Z,13.65
2023-04-28T06:56:06.066Z,15.48
2023-04-28T06:59:09.424Z,17.77
2023-04-28T07:02:13.366Z,14.73
2023-04-28T07:05:16.848Z,13.20
2023-04-28T07:08:19.551Z,12.00
2023-04-28T07:11:23.444Z,11.55
2023-04-28T07:14:26.182Z,10.65
2023-04-28T07:17:29.246Z,12.57
2023-04-28T07:20:31.813Z,13.32
2023-04-28T07:23:35.037Z,12.50
2023-04-28T07:26:37.714Z,9.77
2023-04-28T07:29:40.713Z,13.40
2023-04-28T07:32:44.092Z,12.60
2023-04-28T07:35:47.182Z,10.40
2023-04-28T07:38:49.929Z,7.82
2023-04-28T07:41:52.896Z,14.02
2023-04-28T07:44:58.375Z,9.90
2023-04-28T07:48:01.538Z,11.98
2023-04-28T07:51:04.351Z,12.40
2023-04-28T07:54:07.283Z,9.88
2023-04-28T07:57:10.809Z,12.25
2023-04-28T08:00:14.671Z,9.77
2023-04-28T08:03:18.312Z,10.68
2023-04-28T08:06:21.683Z,9.60
2023-04-28T08:09:24.916Z,8.80
2023-04-28T08:12:27.694Z,10.82
2023-04-28T08:15:30.790Z,7.57
2023-04-28T08:18:33.697Z,9.10
2023-04-28T08:21:47.991Z,11.30
2023-04-28T08:24:50.664Z,8.05
2023-04-28T08:27:57.129Z,5.78
2023-04-28T08:31:01.135Z,9.45
2023-04-28T08:34:04.251Z,8.55
2023-04-28T08:37:07.004Z,7.82
2023-04-28T08:40:10.368Z,6.65
2023-04-28T08:43:15.118Z,5.85
2023-04-28T08:46:19.713Z,8.65
2023-04-28T08:49:31.461Z,8.88
2023-04-28T08:52:35.903Z,9.43
2023-04-28T08:55:39.012Z,5.57
2023-04-28T08:58:42.180Z,7.93
2023-04-28T09:01:49.258Z,5.28
2023-04-28T09:04:53.349Z,6.97
2023-04-28T09:07:56.422Z,9.63
2023-04-28T09:11:08.279Z,8.45
2023-04-28T09:14:14.132Z,6.07
2023-04-28T09:17:17.221Z,6.10
2023-04-28T09:20:24.671Z,7.15
2023-04-28T09:23:28.061Z,6.30
2023-04-28T09:26:50.678Z,4.60
2023-04-28T09:29:54.796Z,8.85
2023-04-28T09:33:10.726Z,5.03
2023-04-28T09:36:27.235Z,9.52
2023-04-28T09:39:33.340Z,4.37
2023-04-28T09:42:44.321Z,8.25
2023-04-28T09:45:46.983Z,4.25
2023-04-28T09:48:49.932Z,5.10
2023-04-28T09:51:52.649Z,5.12
2023-04-28T09:54:56.967Z,7.18
2023-04-28T09:58:06.131Z,4.87
2023-04-28T10:01:11.742Z,6.15
2023-04-28T10:04:15.592Z,5.95
2023-04-28T10:07:20.809Z,6.12
2023-04-28T10:10:25.205Z,5.62
2023-04-28T10:13:28.033Z,5.05
2023-04-28T10:16:33.372Z,5.43
2023-04-28T10:19:37.529Z,5.60
2023-04-28T10:22:46.818Z,7.05
2023-04-28T10:25:54.501Z,6.32
2023-04-28T10:28:59.159Z,6.70
2023-04-28T10:32:23.572Z,9.35
2023-04-28T10:35:27.771Z,6.12
2023-04-28T10:38:31.158Z,5.85
2023-04-28T10:41:34.745Z,6.35
2023-04-28T10:44:37.548Z,5.20
2023-04-28T10:48:12.627Z,5.25
2023-04-28T10:51:21.418Z,4.10
2023-04-28T10:54:29.442Z,4.68
2023-04-28T10:57:35.494Z,6.85
2023-04-28T11:00:40.119Z,6.43
2023-04-28T11:03:46.786Z,4.90
2023-04-28T11:07:09.977Z,5.78
2023-04-28T11:10:12.824Z,5.32
2023-04-28T11:13:34.285Z,7.30
2023-04-28T11:16:50.912Z,5.62
2023-04-28T11:19:57.119Z,5.62
2023-04-28T11:22:59.974Z,4.80
2023-04-28T11:26:02.974Z,3.97
2023-04-28T11:29:06.003Z,6.28
2023-04-28T11:32:10.920Z,3.42
2023-04-28T11:35:13.840Z,4.55
2023-04-28T11:38:16.927Z,3.33
2023-04-28T11:41:20.940Z,4.78
2023-04-28T11:44:28.237Z,3.58
2023-04-28T11:47:33.714Z,7.00
2023-04-28T11:50:38.287Z,4.93
2023-04-28T11:53:47.567Z,6.05
2023-04-28T11:56:54.174Z,4.62
2023-04-28T12:00:15.321Z,4.43
2023-04-28T12:03:19.003Z,8.10
2023-04-28T12:06:22.195Z,6.07
2023-04-28T12:09:25.941Z,5.62
2023-04-28T12:12:45.319Z,4.68
2023-04-28T12:15:55.679Z,4.22
2023-04-28T12:19:02.586Z,6.40
2023-04-28T12:22:09.328Z,6.60
2023-04-28T12:25:13.678Z,5.22
2023-04-28T12:28:16.769Z,4.25
2023-04-28T12:31:19.724Z,9.57
2023-04-28T12:34:22.772Z,6.22
2023-04-28T12:37:25.787Z,4.90
2023-04-28T12:40:28.713Z,6.07
2023-04-28T12:43:32.180Z,7.57
2023-04-28T12:46:35.429Z,7.75
2023-04-28T12:49:38.905Z,7.80
2023-04-28T12:52:42.151Z,3.83
2023-04-28T12:55:46.422Z,5.00
2023-04-28T12:58:50.235Z,4.82
2023-04-28T13:01:53.266Z,7.53
2023-04-28T13:04:56.518Z,2.97
2023-04-28T13:07:59.709Z,6.35
2023-04-28T13:11:12.834Z,8.35
2023-04-28T13:14:26.533Z,5.28
2023-04-28T13:17:29.890Z,4.50
2023-04-28T13:20:32.648Z,4.05
2023-04-28T13:23:35.599Z,6.35
2023-04-28T13:26:38.399Z,2.72
2023-04-28T13:29:41.539Z,5.57
2023-04-28T13:32:44.216Z,4.25
2023-04-28T13:35:47.801Z,3.53
2023-04-28T13:38:51.254Z,6.62
2023-04-28T13:41:54.305Z,4.47
2023-04-28T13:44:57.140Z,4.22
2023-04-28T13:48:00.091Z,4.15
2023-04-28T13:51:04.070Z,4.60
2023-04-28T13:54:11.530Z,3.30
2023-04-28T13:57:14.552Z,3.90
2023-04-28T14:00:20.550Z,6.00
2023-04-28T14:03:24.758Z,3.75
2023-04-28T14:06:27.937Z,6.22
2023-04-28T14:09:32.846Z,4.65
2023-04-28T14:12:35.587Z,5.07
2023-04-28T14:15:44.980Z,3.28
2023-04-28T14:18:58.696Z,9.27
2023-04-28T14:22:02.575Z,3.75
2023-04-28T14:25:05.568Z,5.18
2023-04-28T14:28:10.089Z,3.55
2023-04-28T14:31:12.856Z,5.87
2023-04-28T14:34:15.828Z,4.80
2023-04-28T14:37:18.585Z,5.50
2023-04-28T14:40:21.687Z,5.22
2023-04-28T14:43:24.837Z,4.78
2023-04-28T14:46:28.098Z,5.37
2023-04-28T14:49:31.063Z,5.90
2023-04-28T14:52:34.145Z,5.00
2023-04-28T14:55:37.115Z,6.62
2023-04-28T14:58:40.566Z,6.60
2023-04-28T15:01:43.658Z,5.32
2023-04-28T15:04:47.072Z,6.40
2023-04-28T15:07:50.075Z,7.35
2023-04-28T15:10:53.945Z,9.80
2023-04-28T15:13:57.012Z,4.35
2023-04-28T15:17:00.008Z,3.40
2023-04-28T15:20:03.157Z,3.78
2023-04-28T15:23:06.369Z,7.00
2023-04-28T15:26:10.881Z,6.78
2023-04-28T15:29:13.926Z,8.05
2023-04-28T15:32:16.714Z,8.70
2023-04-28T15:35:19.669Z,13.57
2023-04-28T15:38:22.678Z,12.90
2023-04-28T15:41:25.988Z,14.30
2023-04-28T15:44:30.501Z,12.30
2023-04-28T15:47:33.726Z,8.40
2023-04-28T15:50:37.432Z,10.25
2023-04-28T15:53:40.948Z,12.00
2023-04-28T15:56:43.559Z,15.82
2023-04-28T15:59:46.694Z,21.60
